sensor_id;sensor_type;location;lat;lon;timestamp;temperature;humidity
55213;DHT22;41083;52.932;6.674;2023-05-29T00:00:19;10.90;99.90
55213;DHT22;41083;52.932;6.674;2023-05-29T00:02:46;10.80;99.90
55213;DHT22;41083;52.932;6.674;2023-05-29T00:05:13;10.80;99.90
55213;DHT22;41083;52.932;6.674;2023-05-29T00:07:39;10.80;99.90
55213;DHT22;41083;52.932;6.674;2023-05-29T00:10:06;10.80;99.90
55213;DHT22;41083;52.932;6.674;2023-05-29T00:12:32;10.80;99.90
55213;DHT22;41083;52.932;6.674;2023-05-29T00:14:58;10.70;99.90
55213;DHT22;41083;52.932;6.674;2023-05-29T00:17:24;10.70;99.90
55213;DHT22;41083;52.932;6.674;2023-05-29T00:19:50;10.70;99.90
55213;DHT22;41083;52.932;6.674;2023-05-29T00:22:16;10.70;99.90
55213;DHT22;41083;52.932;6.674;2023-05-29T00:24:41;10.80;99.90
55213;DHT22;41083;52.932;6.674;2023-05-29T00:27:07;10.70;99.90
55213;DHT22;41083;52.932;6.674;2023-05-29T00:29:34;10.70;99.90
55213;DHT22;41083;52.932;6.674;2023-05-29T00:32:01;10.70;99.90
55213;DHT22;41083;52.932;6.674;2023-05-29T00:34:27;10.60;99.90
55213;DHT22;41083;52.932;6.674;2023-05-29T00:36:52;10.60;99.90
55213;DHT22;41083;52.932;6.674;2023-05-29T00:39:20;10.60;99.90
55213;DHT22;41083;52.932;6.674;2023-05-29T00:41:45;10.60;99.90
55213;DHT22;41083;52.932;6.674;2023-05-29T00:44:11;10.60;99.90
55213;DHT22;41083;52.932;6.674;2023-05-29T00:46:36;10.60;99.90
55213;DHT22;41083;52.932;6.674;2023-05-29T00:49:04;10.60;99.90
55213;DHT22;41083;52.932;6.674;2023-05-29T00:51:31;10.50;99.90
55213;DHT22;41083;52.932;6.674;2023-05-29T00:53:57;10.50;99.90
55213;DHT22;41083;52.932;6.674;2023-05-29T00:56:24;10.50;99.90
55213;DHT22;41083;52.932;6.674;2023-05-29T00:58:51;10.60;99.90
55213;DHT22;41083;52.932;6.674;2023-05-29T01:01:18;10.50;99.90
55213;DHT22;41083;52.932;6.674;2023-05-29T01:03:44;10.50;99.90
55213;DHT22;41083;52.932;6.674;2023-05-29T01:06:11;10.50;99.90
55213;DHT22;41083;52.932;6.674;2023-05-29T01:08:37;10.50;99.90
55213;DHT22;41083;52.932;6.674;2023-05-29T01:11:28;10.40;99.90
55213;DHT22;41083;52.932;6.674;2023-05-29T01:13:59;10.40;99.90
55213;DHT22;41083;52.932;6.674;2023-05-29T01:16:37;10.30;99.90
55213;DHT22;41083;52.932;6.674;2023-05-29T01:19:30;10.30;99.90
55213;DHT22;41083;52.932;6.674;2023-05-29T01:22:12;10.30;99.90
55213;DHT22;41083;52.932;6.674;2023-05-29T01:24:55;10.20;99.90
55213;DHT22;41083;52.932;6.674;2023-05-29T01:27:24;10.20;99.90
55213;DHT22;41083;52.932;6.674;2023-05-29T01:29:52;10.30;99.90
55213;DHT22;41083;52.932;6.674;2023-05-29T01:32:21;10.20;99.90
55213;DHT22;41083;52.932;6.674;2023-05-29T01:34:47;10.20;99.90
55213;DHT22;41083;52.932;6.674;2023-05-29T01:37:12;10.20;99.90
55213;DHT22;41083;52.932;6.674;2023-05-29T01:39:39;10.20;99.90
55213;DHT22;41083;52.932;6.674;2023-05-29T01:42:05;10.20;99.90
55213;DHT22;41083;52.932;6.674;2023-05-29T01:44:31;10.20;99.90
55213;DHT22;41083;52.932;6.674;2023-05-29T01:46:57;10.20;99.90
55213;DHT22;41083;52.932;6.674;2023-05-29T01:49:24;10.20;99.90
55213;DHT22;41083;52.932;6.674;2023-05-29T01:51:50;10.20;99.90
55213;DHT22;41083;52.932;6.674;2023-05-29T01:54:16;10.20;99.90
55213;DHT22;41083;52.932;6.674;2023-05-29T01:56:42;10.20;99.90
55213;DHT22;41083;52.932;6.674;2023-05-29T01:59:10;10.20;99.90
55213;DHT22;41083;52.932;6.674;2023-05-29T02:01:39;10.20;99.90
55213;DHT22;41083;52.932;6.674;2023-05-29T02:04:05;10.20;99.90
55213;DHT22;41083;52.932;6.674;2023-05-29T02:06:31;10.20;99.90
55213;DHT22;41083;52.932;6.674;2023-05-29T02:08:58;10.20;99.90
55213;DHT22;41083;52.932;6.674;2023-05-29T02:11:24;10.20;99.90
55213;DHT22;41083;52.932;6.674;2023-05-29T02:13:51;10.20;99.90
55213;DHT22;41083;52.932;6.674;2023-05-29T02:16:17;10.20;99.90
55213;DHT22;41083;52.932;6.674;2023-05-29T02:18:46;10.10;99.90
55213;DHT22;41083;52.932;6.674;2023-05-29T02:21:12;10.10;99.90
55213;DHT22;41083;52.932;6.674;2023-05-29T02:23:37;10.10;99.90
55213;DHT22;41083;52.932;6.674;2023-05-29T02:26:03;10.00;99.90
55213;DHT22;41083;52.932;6.674;2023-05-29T02:28:28;9.90;99.90
55213;DHT22;41083;52.932;6.674;2023-05-29T02:30:54;9.90;99.90
55213;DHT22;41083;52.932;6.674;2023-05-29T02:33:20;9.90;99.90
55213;DHT22;41083;52.932;6.674;2023-05-29T02:35:45;9.80;99.90
55213;DHT22;41083;52.932;6.674;2023-05-29T02:38:11;9.80;99.90
55213;DHT22;41083;52.932;6.674;2023-05-29T02:40:36;9.80;99.90
55213;DHT22;41083;52.932;6.674;2023-05-29T02:43:02;9.70;99.90
55213;DHT22;41083;52.932;6.674;2023-05-29T02:45:28;9.70;99.90
55213;DHT22;41083;52.932;6.674;2023-05-29T02:47:53;9.70;99.90
55213;DHT22;41083;52.932;6.674;2023-05-29T02:50:19;9.70;99.90
55213;DHT22;41083;52.932;6.674;2023-05-29T02:52:44;9.60;99.90
55213;DHT22;41083;52.932;6.674;2023-05-29T02:55:10;9.60;99.90
55213;DHT22;41083;52.932;6.674;2023-05-29T02:57:36;9.60;99.90
55213;DHT22;41083;52.932;6.674;2023-05-29T03:00:01;9.60;99.90
55213;DHT22;41083;52.932;6.674;2023-05-29T03:02:30;9.60;99.90
55213;DHT22;41083;52.932;6.674;2023-05-29T03:04:56;9.50;99.90
55213;DHT22;41083;52.932;6.674;2023-05-29T03:07:21;9.60;99.90
55213;DHT22;41083;52.932;6.674;2023-05-29T03:09:47;9.50;99.90
55213;DHT22;41083;52.932;6.674;2023-05-29T03:12:12;9.50;99.90
55213;DHT22;41083;52.932;6.674;2023-05-29T03:14:38;9.40;99.90
55213;DHT22;41083;52.932;6.674;2023-05-29T03:17:05;9.50;99.90
55213;DHT22;41083;52.932;6.674;2023-05-29T03:19:31;9.40;99.90
55213;DHT22;41083;52.932;6.674;2023-05-29T03:21:56;9.40;99.90
55213;DHT22;41083;52.932;6.674;2023-05-29T03:24:22;9.40;99.90
55213;DHT22;41083;52.932;6.674;2023-05-29T03:26:49;9.40;99.90
55213;DHT22;41083;52.932;6.674;2023-05-29T03:29:16;9.40;99.90
55213;DHT22;41083;52.932;6.674;2023-05-29T03:31:42;9.40;99.90
55213;DHT22;41083;52.932;6.674;2023-05-29T03:34:07;9.40;99.90
55213;DHT22;41083;52.932;6.674;2023-05-29T03:36:33;9.40;99.90
55213;DHT22;41083;52.932;6.674;2023-05-29T03:39:02;9.30;99.90
55213;DHT22;41083;52.932;6.674;2023-05-29T03:41:27;9.30;99.90
55213;DHT22;41083;52.932;6.674;2023-05-29T03:43:53;9.30;99.90
55213;DHT22;41083;52.932;6.674;2023-05-29T03:46:19;9.30;99.90
55213;DHT22;41083;52.932;6.674;2023-05-29T03:48:44;9.20;99.90
55213;DHT22;41083;52.932;6.674;2023-05-29T03:51:10;9.30;99.90
55213;DHT22;41083;52.932;6.674;2023-05-29T03:53:36;9.30;99.90
55213;DHT22;41083;52.932;6.674;2023-05-29T03:56:01;9.30;99.90
55213;DHT22;41083;52.932;6.674;2023-05-29T03:58:27;9.30;99.90
55213;DHT22;41083;52.932;6.674;2023-05-29T04:00:53;9.30;99.90
55213;DHT22;41083;52.932;6.674;2023-05-29T04:03:18;9.30;99.90
55213;DHT22;41083;52.932;6.674;2023-05-29T04:05:44;9.30;99.90
55213;DHT22;41083;52.932;6.674;2023-05-29T04:08:10;9.30;99.90
55213;DHT22;41083;52.932;6.674;2023-05-29T04:10:36;9.30;99.90
55213;DHT22;41083;52.932;6.674;2023-05-29T04:13:02;9.30;99.90
55213;DHT22;41083;52.932;6.674;2023-05-29T04:15:27;9.30;99.90
55213;DHT22;41083;52.932;6.674;2023-05-29T04:17:54;9.30;99.90
55213;DHT22;41083;52.932;6.674;2023-05-29T04:20:20;9.30;99.90
55213;DHT22;41083;52.932;6.674;2023-05-29T04:22:46;9.30;99.90
55213;DHT22;41083;52.932;6.674;2023-05-29T04:25:12;9.40;99.90
55213;DHT22;41083;52.932;6.674;2023-05-29T04:27:37;9.40;99.90
55213;DHT22;41083;52.932;6.674;2023-05-29T04:30:07;9.40;99.90
55213;DHT22;41083;52.932;6.674;2023-05-29T04:32:33;9.40;99.90
55213;DHT22;41083;52.932;6.674;2023-05-29T04:34:59;9.40;99.90
55213;DHT22;41083;52.932;6.674;2023-05-29T04:37:28;9.40;99.90
55213;DHT22;41083;52.932;6.674;2023-05-29T04:39:57;9.40;99.90
55213;DHT22;41083;52.932;6.674;2023-05-29T04:42:23;9.50;99.90
55213;DHT22;41083;52.932;6.674;2023-05-29T04:44:51;9.50;99.90
55213;DHT22;41083;52.932;6.674;2023-05-29T04:47:18;9.50;99.90
55213;DHT22;41083;52.932;6.674;2023-05-29T04:49:44;9.50;99.90
55213;DHT22;41083;52.932;6.674;2023-05-29T04:52:15;9.50;99.90
55213;DHT22;41083;52.932;6.674;2023-05-29T04:54:41;9.50;99.90
55213;DHT22;41083;52.932;6.674;2023-05-29T04:57:06;9.60;99.90
55213;DHT22;41083;52.932;6.674;2023-05-29T04:59:32;9.60;99.90
55213;DHT22;41083;52.932;6.674;2023-05-29T05:01:57;9.70;99.90
55213;DHT22;41083;52.932;6.674;2023-05-29T05:04:23;9.70;99.90
55213;DHT22;41083;52.932;6.674;2023-05-29T05:06:49;9.80;99.90
55213;DHT22;41083;52.932;6.674;2023-05-29T05:09:14;9.80;99.90
55213;DHT22;41083;52.932;6.674;2023-05-29T05:11:40;9.90;99.90
55213;DHT22;41083;52.932;6.674;2023-05-29T05:14:05;9.90;99.90
55213;DHT22;41083;52.932;6.674;2023-05-29T05:16:31;10.00;99.90
55213;DHT22;41083;52.932;6.674;2023-05-29T05:18:58;10.00;99.90
55213;DHT22;41083;52.932;6.674;2023-05-29T05:21:24;10.10;99.90
55213;DHT22;41083;52.932;6.674;2023-05-29T05:23:49;10.10;99.90
55213;DHT22;41083;52.932;6.674;2023-05-29T05:26:15;10.20;99.90
55213;DHT22;41083;52.932;6.674;2023-05-29T05:28:41;10.20;99.90
55213;DHT22;41083;52.932;6.674;2023-05-29T05:31:06;10.20;99.90
55213;DHT22;41083;52.932;6.674;2023-05-29T05:33:33;10.30;99.90
55213;DHT22;41083;52.932;6.674;2023-05-29T05:35:58;10.30;99.90
55213;DHT22;41083;52.932;6.674;2023-05-29T05:38:24;10.40;99.90
55213;DHT22;41083;52.932;6.674;2023-05-29T05:40:49;10.40;99.90
55213;DHT22;41083;52.932;6.674;2023-05-29T05:43:15;10.40;99.90
55213;DHT22;41083;52.932;6.674;2023-05-29T05:45:41;10.50;99.90
55213;DHT22;41083;52.932;6.674;2023-05-29T05:48:08;10.50;99.90
55213;DHT22;41083;52.932;6.674;2023-05-29T05:50:34;10.60;99.90
55213;DHT22;41083;52.932;6.674;2023-05-29T05:53:00;10.60;99.90
55213;DHT22;41083;52.932;6.674;2023-05-29T05:55:26;10.60;99.90
55213;DHT22;41083;52.932;6.674;2023-05-29T05:57:53;10.70;99.90
55213;DHT22;41083;52.932;6.674;2023-05-29T06:00:19;10.70;99.90
55213;DHT22;41083;52.932;6.674;2023-05-29T06:02:44;10.70;99.90
55213;DHT22;41083;52.932;6.674;2023-05-29T06:05:11;10.80;99.90
55213;DHT22;41083;52.932;6.674;2023-05-29T06:07:37;10.90;99.90
55213;DHT22;41083;52.932;6.674;2023-05-29T06:10:03;11.00;99.90
55213;DHT22;41083;52.932;6.674;2023-05-29T06:12:30;11.00;99.90
55213;DHT22;41083;52.932;6.674;2023-05-29T06:14:55;11.10;99.90
55213;DHT22;41083;52.932;6.674;2023-05-29T06:17:21;11.40;99.90
55213;DHT22;41083;52.932;6.674;2023-05-29T06:19:47;11.50;99.90
55213;DHT22;41083;52.932;6.674;2023-05-29T06:22:14;11.60;99.90
55213;DHT22;41083;52.932;6.674;2023-05-29T06:24:39;11.60;99.90
55213;DHT22;41083;52.932;6.674;2023-05-29T06:27:05;11.60;99.90
55213;DHT22;41083;52.932;6.674;2023-05-29T06:29:32;11.70;99.90
55213;DHT22;41083;52.932;6.674;2023-05-29T06:31:57;11.90;99.90
55213;DHT22;41083;52.932;6.674;2023-05-29T06:34:23;12.20;99.90
55213;DHT22;41083;52.932;6.674;2023-05-29T06:36:48;12.40;99.90
55213;DHT22;41083;52.932;6.674;2023-05-29T06:39:14;12.70;99.90
55213;DHT22;41083;52.932;6.674;2023-05-29T06:41:40;13.20;99.90
55213;DHT22;41083;52.932;6.674;2023-05-29T06:44:06;13.40;99.50
55213;DHT22;41083;52.932;6.674;2023-05-29T06:46:31;13.50;98.90
55213;DHT22;41083;52.932;6.674;2023-05-29T06:48:57;13.70;98.90
55213;DHT22;41083;52.932;6.674;2023-05-29T06:51:23;13.80;98.20
55213;DHT22;41083;52.932;6.674;2023-05-29T06:53:48;13.80;97.70
55213;DHT22;41083;52.932;6.674;2023-05-29T06:56:14;13.60;97.70
55213;DHT22;41083;52.932;6.674;2023-05-29T06:58:40;13.40;98.20
55213;DHT22;41083;52.932;6.674;2023-05-29T07:01:05;13.30;98.30
55213;DHT22;41083;52.932;6.674;2023-05-29T07:03:31;13.20;98.30
55213;DHT22;41083;52.932;6.674;2023-05-29T07:05:57;13.10;98.60
55213;DHT22;41083;52.932;6.674;2023-05-29T07:08:23;13.00;98.80
55213;DHT22;41083;52.932;6.674;2023-05-29T07:10:49;13.00;99.10
55213;DHT22;41083;52.932;6.674;2023-05-29T07:13:16;12.90;98.80
55213;DHT22;41083;52.932;6.674;2023-05-29T07:15:43;12.80;98.70
55213;DHT22;41083;52.932;6.674;2023-05-29T07:18:08;12.80;98.30
55213;DHT22;41083;52.932;6.674;2023-05-29T07:20:35;12.70;98.40
55213;DHT22;41083;52.932;6.674;2023-05-29T07:23:01;12.70;98.30
55213;DHT22;41083;52.932;6.674;2023-05-29T07:25:26;12.60;98.40
55213;DHT22;41083;52.932;6.674;2023-05-29T07:27:52;12.50;98.30
55213;DHT22;41083;52.932;6.674;2023-05-29T07:30:17;12.50;98.20
55213;DHT22;41083;52.932;6.674;2023-05-29T07:32:43;12.50;98.30
55213;DHT22;41083;52.932;6.674;2023-05-29T07:35:09;12.50;98.30
55213;DHT22;41083;52.932;6.674;2023-05-29T07:37:35;12.50;98.00
55213;DHT22;41083;52.932;6.674;2023-05-29T07:40:01;12.50;97.80
55213;DHT22;41083;52.932;6.674;2023-05-29T07:42:27;12.50;98.00
55213;DHT22;41083;52.932;6.674;2023-05-29T07:44:52;12.50;98.10
55213;DHT22;41083;52.932;6.674;2023-05-29T07:47:18;12.60;97.80
55213;DHT22;41083;52.932;6.674;2023-05-29T07:49:43;12.60;97.40
55213;DHT22;41083;52.932;6.674;2023-05-29T07:52:09;12.60;97.50
55213;DHT22;41083;52.932;6.674;2023-05-29T07:54:35;12.60;96.90
55213;DHT22;41083;52.932;6.674;2023-05-29T07:57:00;12.60;97.10
55213;DHT22;41083;52.932;6.674;2023-05-29T07:59:28;12.60;97.20
55213;DHT22;41083;52.932;6.674;2023-05-29T08:01:54;12.60;97.10
55213;DHT22;41083;52.932;6.674;2023-05-29T08:04:24;12.70;97.20
55213;DHT22;41083;52.932;6.674;2023-05-29T08:06:50;12.70;97.20
55213;DHT22;41083;52.932;6.674;2023-05-29T08:09:16;12.80;97.20
55213;DHT22;41083;52.932;6.674;2023-05-29T08:11:43;12.90;97.40
55213;DHT22;41083;52.932;6.674;2023-05-29T08:14:11;13.00;97.20
55213;DHT22;41083;52.932;6.674;2023-05-29T08:16:36;13.10;97.00
55213;DHT22;41083;52.932;6.674;2023-05-29T08:19:02;13.10;96.60
55213;DHT22;41083;52.932;6.674;2023-05-29T08:21:29;13.10;96.50
55213;DHT22;41083;52.932;6.674;2023-05-29T08:23:55;13.10;96.50
55213;DHT22;41083;52.932;6.674;2023-05-29T08:26:20;13.10;96.10
55213;DHT22;41083;52.932;6.674;2023-05-29T08:28:46;13.10;96.40
55213;DHT22;41083;52.932;6.674;2023-05-29T08:31:12;13.10;96.40
55213;DHT22;41083;52.932;6.674;2023-05-29T08:33:37;13.10;96.10
55213;DHT22;41083;52.932;6.674;2023-05-29T08:36:03;13.20;96.30
55213;DHT22;41083;52.932;6.674;2023-05-29T08:38:29;13.30;96.10
55213;DHT22;41083;52.932;6.674;2023-05-29T08:40:56;13.30;95.90
55213;DHT22;41083;52.932;6.674;2023-05-29T08:43:24;13.30;95.80
55213;DHT22;41083;52.932;6.674;2023-05-29T08:45:54;13.30;95.80
55213;DHT22;41083;52.932;6.674;2023-05-29T08:48:23;13.30;95.60
55213;DHT22;41083;52.932;6.674;2023-05-29T08:50:52;13.30;95.30
55213;DHT22;41083;52.932;6.674;2023-05-29T08:53:18;13.30;95.30
55213;DHT22;41083;52.932;6.674;2023-05-29T08:55:45;13.30;95.60
55213;DHT22;41083;52.932;6.674;2023-05-29T08:58:13;13.30;95.00
55213;DHT22;41083;52.932;6.674;2023-05-29T09:00:39;13.30;95.30
55213;DHT22;41083;52.932;6.674;2023-05-29T09:03:06;13.40;95.10
55213;DHT22;41083;52.932;6.674;2023-05-29T09:05:32;13.40;95.00
55213;DHT22;41083;52.932;6.674;2023-05-29T09:07:58;13.50;95.10
55213;DHT22;41083;52.932;6.674;2023-05-29T09:10:24;13.50;95.00
55213;DHT22;41083;52.932;6.674;2023-05-29T09:12:51;13.50;94.80
55213;DHT22;41083;52.932;6.674;2023-05-29T09:15:22;13.50;94.50
55213;DHT22;41083;52.932;6.674;2023-05-29T09:17:56;13.60;94.50
55213;DHT22;41083;52.932;6.674;2023-05-29T09:20:23;13.50;94.70
55213;DHT22;41083;52.932;6.674;2023-05-29T09:23:08;13.60;94.40
55213;DHT22;41083;52.932;6.674;2023-05-29T09:25:40;13.70;93.90
55213;DHT22;41083;52.932;6.674;2023-05-29T09:28:08;13.70;94.30
55213;DHT22;41083;52.932;6.674;2023-05-29T09:30:44;13.70;94.10
55213;DHT22;41083;52.932;6.674;2023-05-29T09:33:11;13.70;93.90
55213;DHT22;41083;52.932;6.674;2023-05-29T09:38:11;13.70;93.80
55213;DHT22;41083;52.932;6.674;2023-05-29T09:40:39;13.80;93.40
55213;DHT22;41083;52.932;6.674;2023-05-29T09:43:16;13.80;93.40
55213;DHT22;41083;52.932;6.674;2023-05-29T09:45:46;13.80;92.60
55213;DHT22;41083;52.932;6.674;2023-05-29T09:48:14;13.80;93.10
55213;DHT22;41083;52.932;6.674;2023-05-29T09:50:41;13.80;93.30
55213;DHT22;41083;52.932;6.674;2023-05-29T09:53:24;13.80;93.60
55213;DHT22;41083;52.932;6.674;2023-05-29T09:55:53;13.90;93.60
55213;DHT22;41083;52.932;6.674;2023-05-29T09:58:21;14.00;93.90
55213;DHT22;41083;52.932;6.674;2023-05-29T10:00:47;14.00;93.70
55213;DHT22;41083;52.932;6.674;2023-05-29T10:03:14;14.00;93.40
55213;DHT22;41083;52.932;6.674;2023-05-29T10:05:41;14.00;93.50
55213;DHT22;41083;52.932;6.674;2023-05-29T10:08:14;14.00;93.40
55213;DHT22;41083;52.932;6.674;2023-05-29T10:10:42;14.00;92.70
55213;DHT22;41083;52.932;6.674;2023-05-29T10:13:12;14.00;93.00
55213;DHT22;41083;52.932;6.674;2023-05-29T10:15:41;14.00;92.80
55213;DHT22;41083;52.932;6.674;2023-05-29T10:18:13;14.10;92.80
55213;DHT22;41083;52.932;6.674;2023-05-29T10:20:44;14.00;92.00
55213;DHT22;41083;52.932;6.674;2023-05-29T10:23:10;14.00;91.50
55213;DHT22;41083;52.932;6.674;2023-05-29T10:25:37;14.00;91.90
55213;DHT22;41083;52.932;6.674;2023-05-29T10:28:02;14.00;91.40
55213;DHT22;41083;52.932;6.674;2023-05-29T10:38:40;14.20;92.10
55213;DHT22;41083;52.932;6.674;2023-05-29T10:41:35;14.30;91.90
55213;DHT22;41083;52.932;6.674;2023-05-29T10:49:24;14.40;91.80
55213;DHT22;41083;52.932;6.674;2023-05-29T10:51:50;14.40;92.00
55213;DHT22;41083;52.932;6.674;2023-05-29T10:54:19;14.40;92.10
55213;DHT22;41083;52.932;6.674;2023-05-29T10:57:01;14.40;92.30
55213;DHT22;41083;52.932;6.674;2023-05-29T10:59:27;14.40;91.40
55213;DHT22;41083;52.932;6.674;2023-05-29T11:01:55;14.40;91.60
55213;DHT22;41083;52.932;6.674;2023-05-29T11:06:46;14.50;91.30
55213;DHT22;41083;52.932;6.674;2023-05-29T11:09:35;14.50;91.00
55213;DHT22;41083;52.932;6.674;2023-05-29T11:12:15;14.50;89.80
55213;DHT22;41083;52.932;6.674;2023-05-29T11:15:02;14.50;90.10
55213;DHT22;41083;52.932;6.674;2023-05-29T11:17:32;14.60;88.20
55213;DHT22;41083;52.932;6.674;2023-05-29T11:20:02;14.60;90.50
55213;DHT22;41083;52.932;6.674;2023-05-29T11:22:53;14.60;90.10
55213;DHT22;41083;52.932;6.674;2023-05-29T11:25:21;14.60;89.70
55213;DHT22;41083;52.932;6.674;2023-05-29T11:27:47;14.70;90.20
55213;DHT22;41083;52.932;6.674;2023-05-29T11:30:13;14.70;89.70
55213;DHT22;41083;52.932;6.674;2023-05-29T11:32:39;14.70;90.10
55213;DHT22;41083;52.932;6.674;2023-05-29T11:35:09;14.70;89.20
55213;DHT22;41083;52.932;6.674;2023-05-29T11:37:37;14.80;87.60
55213;DHT22;41083;52.932;6.674;2023-05-29T11:40:07;14.80;88.40
55213;DHT22;41083;52.932;6.674;2023-05-29T11:42:35;14.80;87.80
55213;DHT22;41083;52.932;6.674;2023-05-29T11:45:14;14.80;88.60
55213;DHT22;41083;52.932;6.674;2023-05-29T11:47:54;14.80;85.10
55213;DHT22;41083;52.932;6.674;2023-05-29T11:50:25;14.80;88.10
55213;DHT22;41083;52.932;6.674;2023-05-29T11:52:51;14.80;87.10
55213;DHT22;41083;52.932;6.674;2023-05-29T11:55:18;14.90;89.00
55213;DHT22;41083;52.932;6.674;2023-05-29T11:57:44;14.80;87.60
55213;DHT22;41083;52.932;6.674;2023-05-29T12:00:16;14.80;87.40
55213;DHT22;41083;52.932;6.674;2023-05-29T12:02:42;14.80;88.10
55213;DHT22;41083;52.932;6.674;2023-05-29T12:05:09;14.80;88.90
55213;DHT22;41083;52.932;6.674;2023-05-29T12:07:36;14.70;88.60
55213;DHT22;41083;52.932;6.674;2023-05-29T12:10:15;14.80;89.30
55213;DHT22;41083;52.932;6.674;2023-05-29T12:12:42;14.80;85.60
55213;DHT22;41083;52.932;6.674;2023-05-29T12:15:09;14.90;88.60
55213;DHT22;41083;52.932;6.674;2023-05-29T12:17:35;14.90;88.20
55213;DHT22;41083;52.932;6.674;2023-05-29T12:20:03;15.00;87.30
55213;DHT22;41083;52.932;6.674;2023-05-29T12:22:36;15.00;86.30
55213;DHT22;41083;52.932;6.674;2023-05-29T12:25:20;14.90;86.20
55213;DHT22;41083;52.932;6.674;2023-05-29T12:27:47;14.90;85.80
55213;DHT22;41083;52.932;6.674;2023-05-29T12:30:20;14.90;86.70
55213;DHT22;41083;52.932;6.674;2023-05-29T12:32:48;14.90;86.40
55213;DHT22;41083;52.932;6.674;2023-05-29T12:35:24;14.90;87.10
55213;DHT22;41083;52.932;6.674;2023-05-29T12:37:57;14.90;83.60
55213;DHT22;41083;52.932;6.674;2023-05-29T12:40:27;14.80;85.50
55213;DHT22;41083;52.932;6.674;2023-05-29T12:43:00;14.90;86.10
55213;DHT22;41083;52.932;6.674;2023-05-29T12:45:27;14.90;86.40
55213;DHT22;41083;52.932;6.674;2023-05-29T12:47:54;15.00;85.60
55213;DHT22;41083;52.932;6.674;2023-05-29T12:50:21;15.00;85.10
55213;DHT22;41083;52.932;6.674;2023-05-29T12:53:09;15.00;85.10
55213;DHT22;41083;52.932;6.674;2023-05-29T12:55:36;15.00;81.20
55213;DHT22;41083;52.932;6.674;2023-05-29T12:58:03;15.00;76.10
55213;DHT22;41083;52.932;6.674;2023-05-29T13:00:29;15.00;83.40
55213;DHT22;41083;52.932;6.674;2023-05-29T13:02:56;15.10;82.30
55213;DHT22;41083;52.932;6.674;2023-05-29T13:05:22;15.10;82.60
55213;DHT22;41083;52.932;6.674;2023-05-29T13:07:51;15.10;82.70
55213;DHT22;41083;52.932;6.674;2023-05-29T13:10:17;15.10;81.80
55213;DHT22;41083;52.932;6.674;2023-05-29T13:12:44;15.10;81.40
55213;DHT22;41083;52.932;6.674;2023-05-29T13:15:11;15.20;81.70
55213;DHT22;41083;52.932;6.674;2023-05-29T13:17:38;15.20;81.90
55213;DHT22;41083;52.932;6.674;2023-05-29T13:20:08;15.20;81.40
55213;DHT22;41083;52.932;6.674;2023-05-29T13:22:35;15.20;80.50
55213;DHT22;41083;52.932;6.674;2023-05-29T13:25:01;15.20;79.10
55213;DHT22;41083;52.932;6.674;2023-05-29T13:27:27;15.20;79.60
55213;DHT22;41083;52.932;6.674;2023-05-29T13:29:53;15.20;80.60
55213;DHT22;41083;52.932;6.674;2023-05-29T13:32:19;15.30;79.40
55213;DHT22;41083;52.932;6.674;2023-05-29T13:34:45;15.20;79.00
55213;DHT22;41083;52.932;6.674;2023-05-29T13:37:11;15.20;80.70
55213;DHT22;41083;52.932;6.674;2023-05-29T13:39:36;15.20;81.50
55213;DHT22;41083;52.932;6.674;2023-05-29T13:42:02;15.20;81.30
55213;DHT22;41083;52.932;6.674;2023-05-29T13:44:27;15.30;80.50
55213;DHT22;41083;52.932;6.674;2023-05-29T13:46:53;15.20;80.60
55213;DHT22;41083;52.932;6.674;2023-05-29T13:49:19;15.20;77.50
55213;DHT22;41083;52.932;6.674;2023-05-29T13:51:45;15.20;76.30
55213;DHT22;41083;52.932;6.674;2023-05-29T13:54:12;15.30;74.40
55213;DHT22;41083;52.932;6.674;2023-05-29T13:56:38;15.30;74.00
55213;DHT22;41083;52.932;6.674;2023-05-29T13:59:03;15.30;74.10
55213;DHT22;41083;52.932;6.674;2023-05-29T14:01:32;15.30;73.60
55213;DHT22;41083;52.932;6.674;2023-05-29T14:03:58;15.40;74.00
55213;DHT22;41083;52.932;6.674;2023-05-29T14:06:24;15.40;73.80
55213;DHT22;41083;52.932;6.674;2023-05-29T14:08:50;15.40;73.00
55213;DHT22;41083;52.932;6.674;2023-05-29T14:11:16;15.30;72.60
55213;DHT22;41083;52.932;6.674;2023-05-29T14:13:41;15.30;71.60
55213;DHT22;41083;52.932;6.674;2023-05-29T14:16:07;15.30;72.30
55213;DHT22;41083;52.932;6.674;2023-05-29T14:18:32;15.40;72.90
55213;DHT22;41083;52.932;6.674;2023-05-29T14:20:58;15.40;72.20
55213;DHT22;41083;52.932;6.674;2023-05-29T14:23:23;15.40;71.50
55213;DHT22;41083;52.932;6.674;2023-05-29T14:25:49;15.30;71.80
55213;DHT22;41083;52.932;6.674;2023-05-29T14:28:16;15.30;72.90
55213;DHT22;41083;52.932;6.674;2023-05-29T14:30:43;15.30;72.70
55213;DHT22;41083;52.932;6.674;2023-05-29T14:33:08;15.30;73.30
55213;DHT22;41083;52.932;6.674;2023-05-29T14:35:34;15.30;73.30
55213;DHT22;41083;52.932;6.674;2023-05-29T14:38:00;15.30;73.50
55213;DHT22;41083;52.932;6.674;2023-05-29T14:40:25;15.30;74.60
55213;DHT22;41083;52.932;6.674;2023-05-29T14:42:51;15.30;72.50
55213;DHT22;41083;52.932;6.674;2023-05-29T14:45:17;15.40;72.50
55213;DHT22;41083;52.932;6.674;2023-05-29T14:47:43;15.30;73.20
55213;DHT22;41083;52.932;6.674;2023-05-29T14:50:08;15.30;71.80
55213;DHT22;41083;52.932;6.674;2023-05-29T14:52:34;15.30;70.70
55213;DHT22;41083;52.932;6.674;2023-05-29T14:55:06;15.30;72.00
55213;DHT22;41083;52.932;6.674;2023-05-29T14:57:32;15.20;72.00
55213;DHT22;41083;52.932;6.674;2023-05-29T15:00:00;15.20;73.20
55213;DHT22;41083;52.932;6.674;2023-05-29T15:02:26;15.20;73.50
55213;DHT22;41083;52.932;6.674;2023-05-29T15:04:52;15.30;74.40
55213;DHT22;41083;52.932;6.674;2023-05-29T15:07:17;15.30;73.40
55213;DHT22;41083;52.932;6.674;2023-05-29T15:09:43;15.30;72.80
55213;DHT22;41083;52.932;6.674;2023-05-29T15:12:09;15.30;73.00
55213;DHT22;41083;52.932;6.674;2023-05-29T15:14:35;15.30;72.60
55213;DHT22;41083;52.932;6.674;2023-05-29T15:17:01;15.30;71.20
55213;DHT22;41083;52.932;6.674;2023-05-29T15:19:27;15.20;72.00
55213;DHT22;41083;52.932;6.674;2023-05-29T15:21:52;15.20;72.40
55213;DHT22;41083;52.932;6.674;2023-05-29T15:24:18;15.20;71.80
55213;DHT22;41083;52.932;6.674;2023-05-29T15:26:44;15.20;69.60
55213;DHT22;41083;52.932;6.674;2023-05-29T15:29:10;15.20;69.60
55213;DHT22;41083;52.932;6.674;2023-05-29T15:31:36;15.20;69.10
55213;DHT22;41083;52.932;6.674;2023-05-29T15:34:02;15.10;68.40
55213;DHT22;41083;52.932;6.674;2023-05-29T15:36:28;15.10;67.60
55213;DHT22;41083;52.932;6.674;2023-05-29T15:38:54;15.20;67.80
55213;DHT22;41083;52.932;6.674;2023-05-29T15:41:20;15.20;67.20
55213;DHT22;41083;52.932;6.674;2023-05-29T15:43:46;15.20;66.10
55213;DHT22;41083;52.932;6.674;2023-05-29T15:46:11;15.20;65.10
55213;DHT22;41083;52.932;6.674;2023-05-29T15:48:37;15.20;64.50
55213;DHT22;41083;52.932;6.674;2023-05-29T15:51:03;15.30;65.70